createdAt,value
2022-11-28T00:01:36.367Z,57.53
2022-11-28T00:04:10.225Z,54.22
2022-11-28T00:06:48.870Z,58.90
2022-11-28T00:09:16.091Z,61.17
2022-11-28T00:11:45.615Z,60.45
2022-11-28T00:14:15.350Z,56.77
2022-11-28T00:16:50.735Z,51.95
2022-11-28T00:19:17.303Z,55.72
2022-11-28T00:21:43.754Z,60.13
2022-11-28T00:24:10.355Z,61.47
2022-11-28T00:26:48.358Z,66.77
2022-11-28T00:29:18.238Z,62.90
2022-11-28T00:31:46.233Z,52.95
2022-11-28T00:34:14.418Z,81.18
2022-11-28T00:36:43.359Z,61.28
2022-11-28T00:39:11.435Z,60.87
2022-11-28T00:41:37.929Z,54.92
2022-11-28T00:44:04.480Z,74.32
2022-11-28T00:46:30.944Z,85.68
2022-11-28T00:49:04.355Z,105.93
2022-11-28T00:51:32.224Z,59.23
2022-11-28T00:54:00.765Z,106.78
2022-11-28T00:56:31.273Z,85.55
2022-11-28T00:58:58.193Z,88.10
2022-11-28T01:01:35.032Z,32.45
2022-11-28T01:04:06.729Z,61.93
2022-11-28T01:06:40.554Z,114.20
2022-11-28T01:09:16.470Z,85.30
2022-11-28T01:11:46.168Z,89.90
2022-11-28T01:14:13.767Z,37.95
2022-11-28T01:16:40.443Z,53.10
2022-11-28T01:19:07.293Z,62.60
2022-11-28T01:21:34.364Z,67.97
2022-11-28T01:24:01.060Z,77.40
2022-11-28T01:26:29.774Z,92.45
2022-11-28T01:29:00.290Z,68.63
2022-11-28T01:31:28.982Z,102.78
2022-11-28T01:33:56.407Z,101.25
2022-11-28T01:36:23.457Z,117.57
2022-11-28T01:39:09.466Z,133.60
2022-11-28T01:41:36.138Z,92.90
2022-11-28T01:44:05.628Z,170.35
2022-11-28T01:46:38.616Z,142.43
2022-11-28T01:49:13.428Z,118.30
2022-11-28T01:51:42.885Z,134.88
2022-11-28T01:54:09.362Z,125.97
2022-11-28T01:56:51.119Z,115.57
2022-11-28T01:59:25.924Z,114.22
2022-11-28T02:02:14.952Z,126.63
2022-11-28T02:04:42.116Z,107.97
2022-11-28T02:07:08.797Z,119.73
2022-11-28T02:09:35.375Z,109.70
2022-11-28T02:13:02.848Z,118.60
2022-11-28T02:16:17.010Z,32.22
2022-11-28T02:19:39.490Z,142.05
2022-11-28T02:22:45.123Z,110.43
2022-11-28T02:25:54.395Z,207.90
2022-11-28T02:29:16.633Z,66.95
2022-11-28T02:32:05.108Z,133.50
2022-11-28T02:35:24.681Z,55.60
2022-11-28T02:38:38.086Z,131.53
2022-11-28T02:41:28.278Z,159.20
2022-11-28T02:44:04.521Z,153.85
2022-11-28T02:50:33.643Z,106.03
2022-11-28T02:53:07.781Z,176.00
2022-11-28T02:55:41.265Z,155.82
2022-11-28T02:58:09.663Z,111.72
2022-11-28T03:00:39.206Z,126.93
2022-11-28T03:03:13.490Z,59.15
2022-11-28T03:05:55.854Z,297.50
2022-11-28T03:09:02.248Z,254.43
2022-11-28T03:11:43.955Z,206.80
2022-11-28T03:14:38.353Z,212.82
2022-11-28T03:17:11.674Z,190.02
2022-11-28T03:19:47.864Z,70.30
2022-11-28T03:22:29.870Z,122.78
2022-11-28T03:25:10.944Z,217.20
2022-11-28T03:28:21.966Z,226.20
2022-11-28T03:31:03.885Z,229.75
2022-11-28T03:33:38.522Z,213.13
2022-11-28T03:36:12.680Z,266.73
2022-11-28T03:38:42.619Z,114.85
2022-11-28T03:41:15.222Z,230.57
2022-11-28T03:43:46.774Z,168.05
2022-11-28T03:46:16.565Z,171.93
2022-11-28T03:48:47.124Z,185.40
2022-11-28T03:51:21.238Z,137.27
2022-11-28T03:54:01.312Z,69.82
2022-11-28T03:56:46.854Z,166.02
2022-11-28T03:59:17.296Z,151.20
2022-11-28T04:05:48.827Z,150.80
2022-11-28T04:08:22.057Z,157.45
2022-11-28T04:10:54.851Z,97.85
2022-11-28T04:13:37.231Z,106.47
2022-11-28T04:16:13.754Z,53.47
2022-11-28T04:45:11.877Z,34.95
2022-11-28T04:47:38.450Z,78.07
2022-11-28T04:50:05.727Z,101.65
2022-11-28T04:52:59.672Z,67.03
2022-11-28T04:55:31.165Z,70.90
2022-11-28T04:58:36.637Z,117.78
2022-11-28T05:01:05.399Z,102.07
2022-11-28T05:03:38.769Z,69.88
2022-11-28T05:06:08.405Z,95.22
2022-11-28T05:08:35.021Z,156.95
2022-11-28T05:11:01.602Z,47.13
2022-11-28T05:13:35.419Z,85.13
2022-11-28T05:16:03.437Z,68.72
2022-11-28T05:18:29.979Z,74.18
2022-11-28T05:20:58.812Z,22.80
2022-11-28T05:23:25.549Z,90.90
2022-11-28T05:25:52.033Z,72.37
2022-11-28T05:28:18.497Z,66.95
2022-11-28T05:30:44.927Z,97.35
2022-11-28T05:33:11.397Z,72.35
2022-11-28T05:35:39.867Z,102.55
2022-11-28T05:38:09.385Z,79.87
2022-11-28T05:40:44.331Z,51.15
2022-11-28T05:43:12.580Z,55.22
2022-11-28T05:45:43.219Z,51.53
2022-11-28T05:48:10.045Z,70.28
2022-11-28T05:50:40.104Z,65.17
2022-11-28T05:53:06.940Z,107.28
2022-11-28T05:55:33.774Z,76.93
2022-11-28T05:58:00.291Z,91.13
2022-11-28T06:00:26.723Z,71.20
2022-11-28T06:02:57.087Z,106.33
2022-11-28T06:05:42.150Z,43.88
2022-11-28T06:08:12.931Z,36.50
2022-11-28T06:10:39.522Z,98.07
2022-11-28T06:13:05.957Z,69.20
2022-11-28T06:15:37.279Z,70.73
2022-11-28T06:18:04.513Z,84.88
2022-11-28T06:20:34.439Z,54.00
2022-11-28T06:23:01.010Z,50.53
2022-11-28T06:25:27.521Z,54.60
2022-11-28T06:27:53.946Z,78.50
2022-11-28T06:30:20.796Z,87.15
2022-11-28T06:32:47.233Z,90.53
2022-11-28T06:35:14.139Z,60.28
2022-11-28T06:37:40.712Z,99.32
2022-11-28T06:40:07.764Z,90.27
2022-11-28T06:42:37.266Z,104.53
2022-11-28T06:45:05.305Z,159.40
2022-11-28T06:47:31.867Z,70.72
2022-11-28T06:49:58.606Z,73.32
2022-11-28T06:52:25.023Z,51.83
2022-11-28T06:54:51.951Z,31.30
2022-11-28T06:57:18.439Z,60.15
2022-11-28T06:59:45.171Z,86.32
2022-11-28T07:02:12.234Z,103.10
2022-11-28T07:04:38.793Z,92.30
2022-11-28T07:07:06.210Z,152.63
2022-11-28T07:09:32.737Z,153.18
2022-11-28T07:11:59.823Z,137.35
2022-11-28T07:14:26.523Z,136.88
2022-11-28T07:16:53.566Z,122.57
2022-11-28T07:19:23.015Z,103.22
2022-11-28T07:21:50.226Z,223.88
2022-11-28T07:24:18.057Z,106.82
2022-11-28T07:26:46.492Z,134.75
2022-11-28T07:29:17.721Z,174.93
2022-11-28T07:31:44.531Z,274.98
2022-11-28T07:34:11.723Z,170.77
2022-11-28T07:36:38.627Z,87.63
2022-11-28T07:39:08.381Z,206.15
2022-11-28T07:41:35.072Z,119.37
2022-11-28T07:44:02.810Z,291.27
2022-11-28T07:46:31.105Z,247.18
2022-11-28T07:48:57.739Z,181.00
2022-11-28T07:51:31.139Z,97.35
2022-11-28T07:53:57.996Z,62.27
2022-11-28T07:56:35.094Z,166.82
2022-11-28T07:59:11.583Z,305.45
2022-11-28T08:01:38.513Z,222.23
2022-11-28T08:04:07.256Z,221.90
2022-11-28T08:06:37.150Z,256.80
2022-11-28T08:09:06.577Z,191.88
2022-11-28T08:11:33.399Z,199.07
2022-11-28T08:13:59.942Z,178.68
2022-11-28T08:16:28.081Z,152.82
2022-11-28T08:18:55.629Z,21.20
2022-11-28T08:21:24.883Z,234.00
2022-11-28T08:23:53.002Z,185.93
2022-11-28T08:26:28.822Z,141.93
2022-11-28T08:28:57.190Z,121.18
2022-11-28T08:31:26.172Z,131.37
2022-11-28T08:33:54.798Z,136.48
2022-11-28T08:36:22.873Z,114.57
2022-11-28T08:39:09.515Z,154.82
2022-11-28T08:41:40.086Z,118.18
2022-11-28T08:44:06.533Z,164.70
2022-11-28T08:46:33.502Z,169.68
2022-11-28T08:49:04.369Z,159.85
2022-11-28T08:51:31.218Z,148.38
2022-11-28T08:54:00.399Z,155.38
2022-11-28T08:56:27.178Z,172.77
2022-11-28T08:58:54.567Z,198.48
2022-11-28T09:01:24.665Z,198.57
2022-11-28T09:03:51.890Z,110.07
2022-11-28T09:06:18.877Z,178.52
2022-11-28T09:08:45.631Z,193.27
2022-11-28T09:11:15.004Z,114.72
2022-11-28T09:13:41.949Z,158.85
2022-11-28T09:16:08.705Z,124.82
2022-11-28T09:18:35.300Z,203.30
2022-11-28T09:21:07.472Z,55.53
2022-11-28T09:23:33.926Z,154.55
2022-11-28T09:26:01.787Z,185.52
2022-11-28T09:28:29.012Z,158.85
2022-11-28T09:31:15.142Z,188.15
2022-11-28T09:33:41.906Z,119.70
2022-11-28T09:36:10.896Z,113.45
2022-11-28T09:38:37.821Z,101.15
2022-11-28T09:41:04.808Z,142.40
2022-11-28T09:43:35.919Z,176.05
2022-11-28T09:46:06.285Z,206.27
2022-11-28T09:48:49.319Z,166.40
2022-11-28T09:51:22.579Z,144.95
2022-11-28T09:54:09.011Z,104.53
2022-11-28T09:56:35.952Z,143.07
2022-11-28T09:59:04.158Z,147.03
2022-11-28T10:01:38.327Z,146.82
2022-11-28T10:04:12.986Z,112.40
2022-11-28T10:06:52.580Z,132.93
2022-11-28T10:09:39.576Z,241.35
2022-11-28T10:12:30.892Z,139.20
2022-11-28T10:15:07.349Z,151.82
2022-11-28T10:17:39.374Z,241.73
2022-11-28T10:20:10.636Z,156.52
2022-11-28T10:23:05.661Z,132.82
2022-11-28T10:25:37.944Z,48.70
2022-11-28T10:28:11.491Z,142.73
2022-11-28T10:30:42.879Z,110.68
2022-11-28T10:33:27.853Z,195.15
2022-11-28T10:35:59.947Z,73.00
2022-11-28T10:38:31.330Z,66.20
2022-11-28T10:41:06.969Z,108.35
2022-11-28T10:44:03.026Z,114.70
2022-11-28T10:46:36.983Z,136.80
2022-11-28T10:49:22.230Z,81.07
2022-11-28T10:52:09.158Z,99.27
2022-11-28T10:54:59.115Z,47.70
2022-11-28T10:57:58.024Z,81.82
2022-11-28T11:00:24.905Z,50.00
2022-11-28T11:02:54.992Z,56.53
2022-11-28T11:05:25.853Z,79.77
2022-11-28T11:07:56.423Z,60.28
2022-11-28T11:10:27.197Z,70.97
2022-11-28T11:12:53.780Z,112.53
2022-11-28T11:15:31.686Z,111.03
2022-11-28T11:18:02.633Z,44.20
2022-11-28T11:20:33.730Z,42.85
2022-11-28T11:23:03.416Z,43.33
2022-11-28T11:25:32.081Z,58.17
2022-11-28T11:28:02.954Z,75.18
2022-11-28T11:30:42.792Z,74.97
2022-11-28T11:33:16.171Z,27.45
2022-11-28T11:35:49.650Z,52.30
2022-11-28T11:38:16.526Z,82.93
2022-11-28T11:40:43.152Z,61.30
2022-11-28T11:43:28.534Z,55.73
2022-11-28T11:46:13.350Z,31.52
2022-11-28T11:48:39.790Z,57.47
2022-11-28T11:51:07.747Z,30.13
2022-11-28T11:53:34.597Z,45.08
2022-11-28T11:56:03.042Z,54.20
2022-11-28T11:58:47.293Z,51.33
2022-11-28T12:01:16.170Z,49.85
2022-11-28T12:03:49.169Z,53.67
2022-11-28T12:06:25.160Z,39.10
2022-11-28T12:08:55.430Z,82.10
2022-11-28T12:11:47.229Z,56.78
2022-11-28T12:14:19.843Z,56.42
2022-11-28T12:16:54.991Z,49.17
2022-11-28T12:19:40.977Z,39.00
2022-11-28T12:22:46.259Z,40.57
2022-11-28T12:25:41.794Z,18.40
2022-11-28T12:28:30.089Z,30.05
2022-11-28T12:31:23.081Z,30.17
2022-11-28T12:34:03.283Z,54.95
2022-11-28T12:37:01.294Z,41.90
2022-11-28T12:39:40.298Z,42.45
2022-11-28T12:42:09.593Z,66.68
2022-11-28T12:44:52.507Z,60.13
2022-11-28T12:47:37.551Z,63.65
2022-11-28T12:50:13.072Z,58.07
2022-11-28T12:52:47.897Z,59.60
2022-11-28T12:55:26.499Z,65.78
2022-11-28T12:58:15.556Z,74.60
2022-11-28T13:01:23.345Z,108.25
2022-11-28T13:04:14.590Z,53.93
2022-11-28T13:07:13.402Z,43.90
2022-11-28T13:09:57.504Z,59.95
2022-11-28T13:12:54.349Z,80.43
2022-11-28T13:15:27.065Z,80.20
2022-11-28T13:18:08.563Z,126.63
2022-11-28T13:21:04.359Z,106.25
2022-11-28T13:23:35.626Z,98.38
2022-11-28T13:26:12.366Z,100.03
2022-11-28T13:28:57.244Z,81.50
2022-11-28T13:31:43.240Z,100.53
2022-11-28T13:34:15.887Z,67.70
2022-11-28T13:40:14.740Z,126.40
2022-11-28T13:43:07.046Z,116.28
2022-11-28T13:45:39.169Z,83.50
2022-11-28T13:48:57.287Z,215.85
2022-11-28T13:51:30.840Z,130.73
2022-11-28T13:54:20.329Z,171.50
2022-11-28T13:56:48.838Z,116.65
2022-11-28T13:59:18.809Z,252.87
2022-11-28T14:01:53.415Z,90.05
2022-11-28T14:04:19.967Z,208.43
2022-11-28T14:06:48.694Z,189.55
2022-11-28T14:09:15.363Z,236.45
2022-11-28T14:12:13.906Z,200.93
2022-11-28T14:14:50.350Z,106.13
2022-11-28T14:17:45.987Z,253.75
2022-11-28T14:20:12.502Z,233.82
2022-11-28T14:23:10.992Z,205.43
2022-11-28T14:25:46.114Z,238.10
2022-11-28T14:28:36.626Z,216.10
2022-11-28T14:31:05.881Z,184.07
2022-11-28T14:33:43.284Z,205.40
2022-11-28T14:36:30.871Z,202.40
2022-11-28T14:39:05.864Z,108.13
2022-11-28T14:41:32.409Z,155.38
2022-11-28T14:44:36.185Z,107.93
2022-11-28T14:47:14.567Z,99.80
2022-11-28T14:49:41.382Z,102.90
2022-11-28T14:52:44.688Z,89.50
2022-11-28T14:55:29.362Z,93.20
2022-11-28T14:58:04.280Z,90.53
2022-11-28T15:00:57.915Z,122.45
2022-11-28T15:03:35.913Z,114.85
2022-11-28T15:06:14.236Z,146.87
2022-11-28T15:09:17.956Z,181.63
2022-11-28T15:11:58.617Z,73.13
2022-11-28T15:14:27.224Z,118.90
2022-11-28T15:17:10.684Z,113.60
2022-11-28T15:19:44.363Z,74.13
2022-11-28T15:22:33.515Z,106.32
2022-11-28T15:25:00.300Z,82.93
2022-11-28T15:27:27.793Z,112.70
2022-11-28T15:29:59.666Z,118.05
2022-11-28T15:32:28.904Z,85.50
2022-11-28T15:35:00.023Z,104.68
2022-11-28T15:37:33.515Z,134.35
2022-11-28T15:40:06.101Z,119.93
2022-11-28T15:42:35.329Z,169.73
2022-11-28T15:45:08.225Z,89.03
2022-11-28T15:47:34.964Z,92.55
2022-11-28T15:50:17.047Z,121.50
2022-11-28T15:52:56.863Z,110.88
2022-11-28T15:55:24.574Z,127.65
2022-11-28T15:57:51.314Z,100.27
2022-11-28T16:00:23.389Z,108.50
2022-11-28T16:02:55.704Z,106.70
2022-11-28T16:05:25.342Z,89.20
2022-11-28T16:11:53.137Z,89.93
2022-11-28T16:14:30.772Z,89.28
2022-11-28T16:17:01.561Z,101.22
2022-11-28T16:19:32.853Z,91.95
2022-11-28T16:22:09.539Z,90.72
2022-11-28T16:24:48.990Z,92.90
2022-11-28T16:27:37.861Z,80.07
2022-11-28T16:30:36.713Z,88.47
2022-11-28T16:33:53.631Z,86.25
2022-11-28T16:36:24.441Z,78.53
2022-11-28T16:39:04.766Z,72.67
2022-11-28T16:41:32.220Z,76.18
2022-11-28T16:44:02.162Z,75.57
2022-11-28T16:46:34.129Z,80.65
2022-11-28T16:49:00.686Z,74.10
2022-11-28T17:01:57.833Z,60.45
2022-11-28T17:04:26.487Z,68.45
2022-11-28T17:06:57.645Z,58.87
2022-11-28T17:09:24.113Z,59.97
2022-11-28T17:11:58.628Z,67.70
2022-11-28T17:14:25.539Z,61.60
2022-11-28T17:16:52.043Z,59.70
2022-11-28T17:19:18.570Z,64.20
2022-11-28T17:21:56.367Z,58.63
2022-11-28T17:24:26.161Z,64.38
2022-11-28T17:26:53.803Z,60.33
2022-11-28T17:29:23.764Z,59.30
2022-11-28T17:31:50.467Z,56.10
2022-11-28T17:34:23.978Z,61.25
2022-11-28T17:36:51.034Z,55.75
2022-11-28T17:39:18.659Z,53.83
2022-11-28T17:41:46.832Z,59.85
2022-11-28T17:44:23.572Z,50.27
2022-11-28T17:57:38.208Z,51.50
2022-11-28T18:00:08.589Z,55.63
2022-11-28T18:02:35.164Z,53.22
2022-11-28T18:05:01.677Z,52.97
2022-11-28T18:07:28.334Z,55.75
2022-11-28T18:09:55.064Z,54.97
2022-11-28T18:12:26.973Z,50.03
2022-11-28T18:14:53.455Z,50.17
2022-11-28T18:17:19.925Z,52.30
2022-11-28T18:19:46.538Z,52.55
2022-11-28T18:22:13.212Z,50.20
2022-11-28T18:24:39.646Z,49.35
2022-11-28T18:27:06.103Z,47.35
2022-11-28T20:15:41.531Z,50.13
2022-11-28T21:04:24.432Z,42.15
